Time;durP1;ratioP1;P1;durP2;ratioP2;P2;SDS_P1;SDS_P2;PMS_P1;PMS_P2;Temp;Humidity;BMP_temperature;BMP_pressure;BME280_temperature;BME280_humidity;BME280_pressure;Samples;Min_cycle;Max_cycle;Signal;HPM_P1;HPM_P2
2022/08/11 00:01:18;;;;;;;0.30;0.30;;;26.00;44.40;;;;;;5046279;28;20512;-60
2022/08/11 00:03:52;;;;;;;0.57;0.32;;;26.00;44.40;;;;;;5046229;28;20060;-59
2022/08/11 00:06:33;;;;;;;0.40;0.40;;;26.00;44.40;;;;;;5046384;28;20049;-60
2022/08/11 00:09:04;;;;;;;0.30;0.30;;;26.00;44.40;;;;;;5046402;28;20056;-60
2022/08/11 00:11:41;;;;;;;0.40;0.40;;;26.00;44.50;;;;;;5046341;28;20321;-59
2022/08/11 00:14:19;;;;;;;0.50;0.50;;;26.00;44.50;;;;;;5046196;28;20098;-59
2022/08/11 00:17:11;;;;;;;0.38;0.30;;;26.00;44.50;;;;;;5046454;28;20383;-59
2022/08/11 00:19:43;;;;;;;0.40;0.40;;;26.00;44.60;;;;;;5046015;28;20044;-59
2022/08/11 00:22:32;;;;;;;0.45;0.20;;;26.00;44.60;;;;;;5044606;28;20138;-59
2022/08/11 00:25:09;;;;;;;0.30;0.30;;;25.90;44.50;;;;;;5043367;28;20060;-59
2022/08/11 00:27:38;;;;;;;0.30;0.30;;;26.00;44.60;;;;;;5042068;28;20049;-59
2022/08/11 00:30:08;;;;;;;0.30;0.30;;;26.00;44.60;;;;;;5044839;28;20049;-59
2022/08/11 00:32:38;;;;;;;0.32;0.32;;;25.90;44.60;;;;;;5046324;28;20337;-59
2022/08/11 00:35:09;;;;;;;0.30;0.30;;;26.00;44.70;;;;;;5045543;28;20601;-59
2022/08/11 00:37:58;;;;;;;0.40;0.40;;;25.90;44.60;;;;;;5045074;28;20131;-59
2022/08/11 00:40:43;;;;;;;0.30;0.30;;;25.90;45.20;;;;;;5045687;28;20460;-59
2022/08/11 00:43:19;;;;;;;0.40;0.40;;;25.90;44.70;;;;;;5046037;28;20293;-59
2022/08/11 00:46:10;;;;;;;0.43;0.43;;;25.90;44.70;;;;;;5045355;28;20509;-59
2022/08/11 00:48:57;;;;;;;;;;;25.90;44.70;;;;;;5046490;28;20423;-59
2022/08/11 00:51:52;;;;;;;0.40;0.40;;;25.90;44.70;;;;;;5044264;28;19970;-58
2022/08/11 00:55:04;;;;;;;0.30;0.30;;;25.90;44.70;;;;;;5045060;28;20045;-59
2022/08/11 00:58:01;;;;;;;0.20;0.20;;;25.90;44.80;;;;;;5039897;28;20053;-59
2022/08/11 01:00:41;;;;;;;0.40;0.30;;;25.90;44.80;;;;;;5045191;28;20107;-59
2022/08/11 01:03:43;;;;;;;0.22;0.22;;;25.90;44.80;;;;;;5046004;28;20103;-59
2022/08/11 01:06:48;;;;;;;0.22;0.22;;;25.90;44.80;;;;;;5045333;28;20049;-59
2022/08/11 01:09:55;;;;;;;0.75;0.50;;;25.90;44.90;;;;;;5045156;28;20110;-59
2022/08/11 01:12:48;;;;;;;0.55;0.55;;;25.90;44.90;;;;;;5043802;28;20056;-59
2022/08/11 01:15:54;;;;;;;0.22;0.22;;;25.90;44.90;;;;;;5044418;28;20052;-59
2022/08/11 01:19:02;;;;;;;0.20;0.20;;;25.80;44.80;;;;;;5046408;28;20567;-59
2022/08/11 01:21:59;;;;;;;0.22;0.22;;;25.80;44.90;;;;;;5045468;28;20045;-59
2022/08/11 01:25:02;;;;;;;0.30;0.30;;;25.80;44.90;;;;;;5045297;28;20110;-59
2022/08/11 01:28:03;;;;;;;0.38;0.38;;;25.80;44.90;;;;;;5045683;28;20513;-60
2022/08/11 01:31:10;;;;;;;0.38;0.38;;;25.80;45.00;;;;;;5044006;28;20571;-59
2022/08/11 01:34:11;;;;;;;0.30;0.30;;;25.80;45.00;;;;;;5045194;28;20568;-59
2022/08/11 01:37:18;;;;;;;0.40;0.28;;;25.80;45.00;;;;;;5046247;28;20044;-59
2022/08/11 01:40:15;;;;;;;0.52;0.30;;;25.80;45.00;;;;;;5043716;28;20052;-59
2022/08/11 01:46:24;;;;;;;0.28;0.25;;;25.80;45.10;;;;;;5045296;28;20087;-59
2022/08/11 01:49:31;;;;;;;0.30;0.30;;;25.80;45.10;;;;;;5046114;28;20111;-59
2022/08/11 01:52:40;;;;;;;0.28;0.13;;;25.70;45.10;;;;;;5046033;28;20114;-59
2022/08/11 01:55:25;;;;;;;0.30;0.30;;;25.70;45.10;;;;;;5044948;28;20067;-59
2022/08/11 01:58:05;;;;;;;0.30;0.30;;;25.70;45.10;;;;;;5045802;28;20049;-59
2022/08/11 02:00:47;;;;;;;0.40;0.40;;;25.70;45.10;;;;;;5041813;28;20126;-62
2022/08/11 02:03:36;;;;;;;0.30;0.30;;;25.70;45.20;;;;;;5045178;28;20118;-59
2022/08/11 02:09:38;;;;;;;0.30;0.30;;;25.70;45.20;;;;;;5046471;28;20091;-59
2022/08/11 02:12:41;;;;;;;1.90;0.25;;;25.70;45.20;;;;;;5044505;28;20053;-59
2022/08/11 02:15:37;;;;;;;0.40;0.40;;;25.70;45.30;;;;;;5048327;28;20048;-59
2022/08/11 02:23:38;;;;;;;0.30;0.30;;;25.70;45.30;;;;;;5049717;28;20102;-59
2022/08/11 02:24:43;;;;;;;0.60;0.25;;;25.70;45.30;;;;;;5049778;28;20056;-61
2022/08/11 02:27:22;;;;;;;0.35;0.35;;;25.70;45.30;;;;;;5049231;28;20091;-59
2022/08/11 02:30:06;;;;;;;0.22;0.22;;;25.70;45.40;;;;;;5049307;28;20480;-59
2022/08/11 02:35:48;;;;;;;;;;;25.70;45.40;;;;;;5049949;28;20242;-59
2022/08/11 02:38:26;;;;;;;0.73;0.50;;;25.70;45.40;;;;;;5049270;28;19920;-59
2022/08/11 02:44:44;;;;;;;0.60;0.30;;;25.60;45.30;;;;;;5049460;28;20545;-59
2022/08/11 02:51:00;;;;;;;0.20;0.20;;;25.70;45.50;;;;;;5048502;28;20045;-59
2022/08/11 02:53:53;;;;;;;0.30;0.28;;;25.60;45.50;;;;;;5047528;28;20053;-59
2022/08/11 02:57:01;;;;;;;0.30;0.30;;;25.70;45.60;;;;;;5048776;28;20380;-59
2022/08/11 02:59:49;;;;;;;0.40;0.40;;;25.60;45.70;;;;;;5047867;28;20044;-59
2022/08/11 03:02:33;;;;;;;0.20;0.20;;;25.60;45.80;;;;;;5049125;28;20349;-59
2022/08/11 03:05:26;;;;;;;0.60;0.47;;;25.60;45.90;;;;;;5044663;28;20524;-59
2022/08/11 03:08:12;;;;;;;0.30;0.30;;;25.70;46.10;;;;;;5048637;28;20048;-59
2022/08/11 03:17:28;;;;;;;0.30;0.30;;;25.60;46.30;;;;;;5048317;28;20064;-59
2022/08/11 03:20:29;;;;;;;0.25;0.25;;;25.60;46.30;;;;;;5048785;28;20099;-59
2022/08/11 03:23:23;;;;;;;0.38;0.30;;;25.60;46.40;;;;;;5048800;28;20053;-59
2022/08/11 03:26:21;;;;;;;0.32;0.32;;;25.60;46.40;;;;;;5047594;28;20402;-59
2022/08/11 03:29:22;;;;;;;0.20;0.20;;;25.60;46.40;;;;;;5048862;28;20049;-59
2022/08/11 03:32:20;;;;;;;0.43;0.30;;;25.60;46.40;;;;;;5048508;28;20052;-59
2022/08/11 03:34:50;;;;;;;0.35;0.30;;;25.60;46.40;;;;;;5046528;28;20057;-59
2022/08/11 03:37:56;;;;;;;0.30;0.30;;;25.60;46.40;;;;;;5045545;28;20387;-59
2022/08/11 03:44:49;;;;;;;0.85;0.28;;;25.60;46.50;;;;;;5047559;28;20155;-59
2022/08/11 03:47:42;;;;;;;0.20;0.20;;;25.60;46.50;;;;;;5033152;28;20049;-59
2022/08/11 03:51:00;;;;;;;0.30;0.30;;;25.50;46.40;;;;;;5047866;28;20072;-58
2022/08/11 03:53:46;;;;;;;0.68;0.40;;;25.60;46.40;;;;;;5047672;28;20391;-59
2022/08/11 03:56:53;;;;;;;0.25;0.25;;;25.60;46.40;;;;;;5047872;28;20049;-59
2022/08/11 04:00:00;;;;;;;1.55;0.43;;;25.60;46.40;;;;;;5045499;28;20210;-59
2022/08/11 04:03:08;;;;;;;0.20;0.20;;;25.60;46.40;;;;;;5047463;28;20524;-59
2022/08/11 04:06:15;;;;;;;0.30;0.30;;;25.60;46.40;;;;;;5046981;28;20444;-59
2022/08/11 04:09:22;;;;;;;0.43;0.43;;;25.60;46.40;;;;;;5042311;28;20049;-59
2022/08/11 04:12:29;;;;;;;3.70;0.73;;;25.60;46.40;;;;;;5046643;28;20049;-59
2022/08/11 04:15:59;;;;;;;0.47;0.40;;;25.60;46.30;;;;;;5047383;28;20323;-59
2022/08/11 04:19:18;;;;;;;0.60;0.60;;;25.60;46.80;;;;;;5047569;28;20040;-59
2022/08/11 04:22:22;;;;;;;0.55;0.30;;;25.60;46.30;;;;;;5047315;28;20048;-58
2022/08/11 04:25:19;;;;;;;0.80;0.55;;;25.70;46.30;;;;;;5047575;28;20391;-59
2022/08/11 04:28:20;;;;;;;0.60;0.60;;;25.70;46.20;;;;;;5046699;28;20060;-59
2022/08/11 04:31:37;;;;;;;0.77;0.68;;;25.70;46.10;;;;;;5045600;28;20055;-59
2022/08/11 04:34:55;;;;;;;0.82;0.50;;;25.70;46.10;;;;;;5046778;28;20319;-59
2022/08/11 04:37:46;;;;;;;0.57;0.57;;;25.70;46.00;;;;;;5046884;28;20284;-59
2022/08/11 04:40:54;;;;;;;0.70;0.60;;;25.70;46.00;;;;;;5041976;28;20048;-59
2022/08/11 04:43:49;;;;;;;1.65;0.93;;;25.80;46.00;;;;;;5046373;28;20529;-59
2022/08/11 04:47:10;;;;;;;0.40;0.40;;;25.80;45.90;;;;;;5047393;28;20044;-59
2022/08/11 05:02:53;;;;;;;0.90;0.85;;;25.90;45.60;;;;;;5046302;28;20041;-59
2022/08/11 05:05:42;;;;;;;0.70;0.60;;;25.90;45.50;;;;;;5046038;28;20099;-59
2022/08/11 05:08:50;;;;;;;1.30;0.80;;;25.90;45.40;;;;;;5040780;28;20411;-59
2022/08/11 05:11:57;;;;;;;0.75;0.50;;;26.00;45.20;;;;;;5036436;28;20403;-59
2022/08/11 05:35:45;;;;;;;1.27;0.70;;;24.00;46.90;;;;;;5034342;28;20045;-59
2022/08/11 05:58:39;;;;;;;3.33;1.70;;;21.20;49.50;;;;;;5042681;28;20053;-60
2022/08/11 06:01:11;;;;;;;2.42;1.80;;;21.00;49.40;;;;;;5040193;28;20402;-60
2022/08/11 06:06:30;;;;;;;3.13;1.90;;;20.80;50.10;;;;;;5035914;28;20430;-60
2022/08/11 06:08:59;;;;;;;4.55;1.85;;;20.70;50.30;;;;;;5039572;28;20061;-60
2022/08/11 06:11:28;;;;;;;7.57;2.00;;;20.60;50.10;;;;;;5041132;28;20106;-61
2022/08/11 06:14:11;;;;;;;4.43;1.80;;;20.60;50.00;;;;;;5032607;28;20458;-60
2022/08/11 06:16:41;;;;;;;2.78;1.63;;;20.50;50.10;;;;;;5035189;28;20057;-59
2022/08/11 06:19:09;;;;;;;2.65;1.48;;;20.40;50.60;;;;;;5041679;28;20045;-59
2022/08/11 06:21:37;;;;;;;3.00;1.88;;;20.30;50.80;;;;;;5042438;28;20125;-59
2022/08/11 06:24:12;;;;;;;1.70;1.60;;;20.30;50.90;;;;;;5044657;28;20095;-60
2022/08/11 06:26:40;;;;;;;2.13;1.52;;;20.20;51.30;;;;;;5036240;28;20053;-60
2022/08/11 06:29:29;;;;;;;4.78;1.60;;;20.10;51.30;;;;;;5040843;28;20223;-59
2022/08/11 06:32:14;;;;;;;1.50;1.20;;;20.10;51.80;;;;;;5064593;28;20493;-59
2022/08/11 06:35:02;;;;;;;6.03;1.58;;;20.10;52.10;;;;;;5044276;28;20050;-59
2022/08/11 06:37:45;;;;;;;4.38;1.92;;;20.00;52.10;;;;;;5038301;28;20041;-60
2022/08/11 06:44:06;;;;;;;1.95;1.33;;;20.00;52.30;;;;;;5042162;28;20045;-61
2022/08/11 06:46:37;;;;;;;2.00;1.48;;;20.00;52.40;;;;;;5036089;28;20052;-60
2022/08/11 06:52:04;;;;;;;2.35;1.48;;;20.00;53.00;;;;;;5043264;28;20041;-60
2022/08/11 06:54:35;;;;;;;2.97;1.50;;;20.00;53.10;;;;;;5044903;28;20437;-60
2022/08/11 07:03:00;;;;;;;2.45;1.73;;;20.00;54.10;;;;;;5045456;28;20409;-60
2022/08/11 07:05:44;;;;;;;2.30;1.60;;;20.10;53.70;;;;;;5040889;28;20561;-61
2022/08/11 07:28:53;;;;;;;1.33;1.23;;;20.20;53.80;;;;;;5037179;28;20155;-60
2022/08/11 07:29:13;;;;;;;5.43;1.38;;;20.30;53.50;;;;;;5037509;28;20058;-59
2022/08/11 07:31:49;;;;;;;1.50;1.40;;;20.30;53.50;;;;;;5037775;28;20103;-61
2022/08/11 07:34:36;;;;;;;2.35;1.38;;;20.30;53.70;;;;;;5044334;28;20060;-60
2022/08/11 07:37:12;;;;;;;1.52;1.42;;;20.30;53.50;;;;;;5040789;28;20049;-61
2022/08/11 07:39:43;;;;;;;3.28;1.35;;;20.30;53.50;;;;;;5043138;28;20502;-61
2022/08/11 07:42:14;;;;;;;3.50;1.30;;;20.30;53.20;;;;;;5041312;28;20049;-60
2022/08/11 07:53:07;;;;;;;2.90;1.10;;;20.40;53.30;;;;;;5045000;28;20123;-59
2022/08/11 07:55:37;;;;;;;1.67;1.10;;;20.40;53.40;;;;;;5040014;28;20056;-61
2022/08/11 08:18:18;;;;;;;1.58;1.20;;;20.50;53.90;;;;;;5043385;28;20045;-60
2022/08/11 08:20:56;;;;;;;1.52;1.08;;;20.50;53.90;;;;;;5033239;28;20053;-59
2022/08/11 08:23:33;;;;;;;1.27;1.13;;;20.60;53.90;;;;;;5042137;28;20485;-59
2022/08/11 08:26:57;;;;;;;1.52;1.40;;;20.60;54.00;;;;;;5043899;28;20242;-59
2022/08/11 08:30:46;;;;;;;1.77;1.15;;;20.60;54.10;;;;;;5039479;28;20057;-59
2022/08/11 08:31:45;;;;;;;1.33;1.08;;;20.60;54.00;;;;;;5041518;28;20140;-59
2022/08/11 08:34:14;;;;;;;1.85;1.17;;;20.60;54.00;;;;;;5045187;28;20066;-58
2022/08/11 08:36:46;;;;;;;0.80;0.80;;;20.60;53.80;;;;;;5039536;28;20052;-59
2022/08/11 08:39:15;;;;;;;2.10;0.98;;;20.60;53.90;;;;;;5037108;28;20052;-59
2022/08/11 08:41:43;;;;;;;1.67;0.88;;;20.60;53.60;;;;;;5034257;28;20128;-59
2022/08/11 08:44:13;;;;;;;1.45;1.08;;;20.60;53.50;;;;;;5032393;28;20118;-60
2022/08/11 08:47:04;;;;;;;1.88;1.38;;;20.60;53.40;;;;;;5037555;28;20478;-60
2022/08/11 08:49:38;;;;;;;1.77;1.17;;;20.70;53.50;;;;;;5041293;28;20055;-60
2022/08/11 08:52:11;;;;;;;2.13;1.30;;;20.70;53.50;;;;;;5035288;28;21884;-60
2022/08/11 08:55:03;;;;;;;2.45;1.33;;;20.70;53.40;;;;;;5040581;28;20151;-60
2022/08/11 08:57:34;;;;;;;2.28;1.00;;;20.70;53.40;;;;;;5039181;28;20045;-60
2022/08/11 09:00:09;;;;;;;2.70;1.40;;;20.80;53.30;;;;;;5020205;28;20090;-59
2022/08/11 09:02:43;;;;;;;3.65;1.02;;;20.80;53.20;;;;;;5037317;28;20045;-58
2022/08/11 09:05:11;;;;;;;2.25;1.23;;;20.80;53.40;;;;;;5039858;28;20047;-59
2022/08/11 09:07:39;;;;;;;1.20;0.88;;;20.80;53.30;;;;;;5038398;28;20444;-60
2022/08/11 09:10:09;;;;;;;4.38;1.17;;;20.80;53.40;;;;;;5041243;28;20052;-59
2022/08/11 09:12:41;;;;;;;1.58;1.25;;;20.80;53.40;;;;;;5068605;28;20060;-59
2022/08/11 09:15:10;;;;;;;3.10;1.10;;;20.80;53.30;;;;;;5039298;28;20053;-59
2022/08/11 09:17:45;;;;;;;1.73;1.05;;;20.90;53.40;;;;;;5039255;28;20148;-59
2022/08/11 09:20:19;;;;;;;3.83;1.20;;;20.90;53.30;;;;;;5033408;28;20049;-60
2022/08/11 09:28:47;;;;;;;3.50;1.00;;;21.00;53.50;;;;;;5035708;28;20053;-60
2022/08/11 09:31:16;;;;;;;3.13;1.05;;;20.90;53.40;;;;;;5039563;28;20064;-60
2022/08/11 09:33:45;;;;;;;1.33;0.90;;;21.00;53.50;;;;;;5040322;28;20053;-61
2022/08/11 09:41:51;;;;;;;5.10;0.75;;;21.00;53.60;;;;;;5044626;28;20102;-59
2022/08/11 09:44:47;;;;;;;2.05;0.90;;;21.00;53.60;;;;;;5040225;28;20445;-60
2022/08/11 09:47:22;;;;;;;0.93;0.70;;;21.00;53.80;;;;;;5035411;28;20045;-59
2022/08/11 09:49:52;;;;;;;1.70;1.05;;;21.10;54.00;;;;;;5031492;28;20053;-59
2022/08/11 09:52:19;;;;;;;;;;;21.10;53.90;;;;;;5036544;28;20509;-59
2022/08/11 09:54:49;;;;;;;4.38;0.93;;;21.10;53.90;;;;;;5036926;28;20365;-58
2022/08/11 10:00:10;;;;;;;1.13;1.02;;;21.10;53.70;;;;;;5029963;28;20053;-59
2022/08/11 10:02:49;;;;;;;0.98;0.77;;;21.10;53.50;;;;;;5028485;28;20056;-60
2022/08/11 10:08:11;;;;;;;0.70;0.68;;;21.10;53.20;;;;;;5038839;28;20052;-60
2022/08/11 10:10:40;;;;;;;1.38;0.60;;;21.10;53.20;;;;;;5039854;28;20049;-61
2022/08/11 10:13:12;;;;;;;1.65;1.15;;;21.10;53.10;;;;;;5036771;28;20124;-59
2022/08/11 10:16:05;;;;;;;1.52;0.77;;;21.10;52.90;;;;;;5037133;28;20462;-59
2022/08/11 10:18:51;;;;;;;1.33;0.90;;;21.10;52.80;;;;;;5039183;28;20490;-59
2022/08/11 10:26:48;;;;;;;0.63;0.63;;;21.00;52.50;;;;;;5038034;28;20049;-59
2022/08/11 10:27:20;;;;;;;1.35;1.08;;;20.90;52.10;;;;;;5035994;28;20482;-59
2022/08/11 10:35:35;;;;;;;1.42;1.10;;;20.90;52.30;;;;;;5034255;28;20317;-59
2022/08/11 10:38:04;;;;;;;1.15;0.73;;;20.80;51.90;;;;;;5034576;28;20040;-59
2022/08/11 10:40:38;;;;;;;0.60;0.60;;;20.80;51.70;;;;;;5044772;28;20105;-60
2022/08/11 10:43:09;;;;;;;;;;;20.70;51.60;;;;;;5039636;28;20053;-59
2022/08/11 10:48:35;;;;;;;0.80;0.60;;;20.70;51.40;;;;;;5042663;28;20053;-59
2022/08/11 10:51:13;;;;;;;0.82;0.82;;;20.60;51.20;;;;;;5035152;28;20110;-60
2022/08/11 10:59:29;;;;;;;3.97;1.08;;;20.40;51.20;;;;;;5040894;28;20433;-59
2022/08/11 11:01:57;;;;;;;1.40;0.80;;;20.40;51.20;;;;;;5036465;28;20049;-59
2022/08/11 11:05:08;;;;;;;5.18;1.20;;;20.40;51.30;;;;;;5040277;28;20053;-59
2022/08/11 11:07:38;;;;;;;4.35;0.95;;;20.30;51.30;;;;;;5041969;28;20049;-59
2022/08/11 11:10:10;;;;;;;1.92;0.90;;;20.30;51.70;;;;;;5038130;28;20954;-59
2022/08/11 11:18:34;;;;;;;1.17;0.77;;;20.20;52.30;;;;;;5040738;28;20050;-59
2022/08/11 11:21:10;;;;;;;3.72;1.05;;;20.20;52.50;;;;;;5042029;28;20088;-59
2022/08/11 11:24:10;;;;;;;1.40;0.95;;;20.20;52.70;;;;;;5037373;28;20308;-60
2022/08/11 11:27:04;;;;;;;3.47;0.90;;;20.20;52.80;;;;;;5037299;28;20049;-59
2022/08/11 11:30:00;;;;;;;0.98;0.90;;;20.30;52.80;;;;;;5041565;28;20045;-60
2022/08/11 11:32:59;;;;;;;3.13;0.95;;;20.30;52.80;;;;;;5058852;28;20135;-60
2022/08/11 11:35:46;;;;;;;3.00;1.05;;;20.40;52.70;;;;;;5040761;28;20098;-60
2022/08/11 11:38:14;;;;;;;1.70;1.23;;;20.40;52.70;;;;;;5037531;28;20162;-60
2022/08/11 11:40:42;;;;;;;2.75;0.77;;;20.40;52.60;;;;;;5040572;28;20049;-59
2022/08/11 11:43:10;;;;;;;3.20;0.90;;;20.50;52.80;;;;;;5041746;28;20044;-60
2022/08/11 11:45:41;;;;;;;0.82;0.80;;;20.50;53.00;;;;;;5039355;28;20041;-59
2022/08/11 11:48:10;;;;;;;2.58;0.80;;;20.50;52.80;;;;;;5033677;28;20494;-60
2022/08/11 11:50:37;;;;;;;0.73;0.73;;;20.60;52.30;;;;;;5034350;28;20541;-59
2022/08/11 11:53:10;;;;;;;0.60;0.60;;;20.60;52.00;;;;;;5040881;28;20056;-59
2022/08/11 11:55:37;;;;;;;4.25;0.80;;;20.60;51.80;;;;;;5040109;28;20049;-59
2022/08/11 12:03:46;;;;;;;1.77;0.70;;;20.50;51.40;;;;;;5037143;28;20401;-59
2022/08/11 12:06:14;;;;;;;3.90;0.70;;;20.40;51.20;;;;;;5041430;28;20083;-59
2022/08/11 12:08:43;;;;;;;0.70;0.70;;;20.40;50.90;;;;;;5039697;28;20156;-59
2022/08/11 12:14:02;;;;;;;4.30;0.90;;;20.30;51.40;;;;;;5032794;28;20059;-59
2022/08/11 12:16:43;;;;;;;0.73;0.73;;;20.30;50.90;;;;;;5033229;28;20063;-59
2022/08/11 12:19:16;;;;;;;0.88;0.82;;;20.20;50.90;;;;;;5034259;28;20092;-59
2022/08/11 12:27:23;;;;;;;1.05;0.70;;;20.10;51.50;;;;;;5038403;28;20052;-59
2022/08/11 12:29:58;;;;;;;0.60;0.60;;;20.10;51.60;;;;;;5033131;28;20056;-60
2022/08/11 12:32:29;;;;;;;2.30;0.93;;;20.10;51.70;;;;;;5040726;28;20095;-60
2022/08/11 12:34:58;;;;;;;2.97;0.70;;;20.20;52.30;;;;;;5031833;28;20049;-60
2022/08/11 12:37:39;;;;;;;0.70;0.70;;;20.10;52.50;;;;;;5034410;28;20071;-58
2022/08/11 12:46:19;;;;;;;0.80;0.80;;;20.10;53.70;;;;;;5034967;28;20417;-59
2022/08/11 12:52:00;;;;;;;0.70;0.65;;;20.30;53.70;;;;;;5035602;28;20794;-59
2022/08/11 12:55:11;;;;;;;1.23;0.95;;;20.30;53.70;;;;;;5041003;28;20041;-58
2022/08/11 13:06:24;;;;;;;0.95;0.85;;;20.60;53.80;;;;;;5034174;28;20124;-58
2022/08/11 13:08:56;;;;;;;1.10;0.80;;;20.60;53.80;;;;;;5028051;28;20063;-58
2022/08/11 13:14:25;;;;;;;0.88;0.88;;;20.60;54.00;;;;;;5038116;28;20053;-57
2022/08/11 13:19:42;;;;;;;0.95;0.70;;;20.70;54.10;;;;;;5037230;28;20102;-58
2022/08/11 13:22:17;;;;;;;0.70;0.68;;;20.70;54.20;;;;;;5032146;28;20330;-58
2022/08/11 13:24:47;;;;;;;0.60;0.60;;;20.70;54.10;;;;;;5035864;28;20049;-59
2022/08/11 13:27:17;;;;;;;0.60;0.60;;;20.70;54.00;;;;;;5042179;28;20072;-60
2022/08/11 13:29:45;;;;;;;1.42;0.65;;;20.80;53.90;;;;;;5035119;28;20476;-58
2022/08/11 13:32:14;;;;;;;0.90;0.90;;;20.80;53.80;;;;;;5027754;28;20493;-59
2022/08/11 13:34:43;;;;;;;2.47;1.40;;;20.80;53.80;;;;;;5039155;28;20045;-58
2022/08/11 13:37:11;;;;;;;0.70;0.70;;;20.80;53.60;;;;;;5037695;28;20506;-59
2022/08/11 13:39:45;;;;;;;0.60;0.60;;;20.90;53.50;;;;;;5035925;28;20045;-60
2022/08/11 13:42:15;;;;;;;1.60;0.82;;;20.90;53.40;;;;;;5041120;28;20053;-59
2022/08/11 13:44:43;;;;;;;0.82;0.68;;;20.80;53.20;;;;;;5037454;28;20405;-59
2022/08/11 13:47:12;;;;;;;1.92;0.73;;;20.90;52.90;;;;;;5035665;28;20057;-60
2022/08/11 13:49:41;;;;;;;1.05;0.60;;;20.90;52.80;;;;;;5040029;28;20047;-59
2022/08/11 13:52:15;;;;;;;0.55;0.55;;;20.90;52.70;;;;;;5034715;28;20402;-58
2022/08/11 13:54:46;;;;;;;1.00;0.80;;;20.90;53.00;;;;;;5030780;28;20422;-59
2022/08/11 13:57:17;;;;;;;0.70;0.70;;;21.00;52.60;;;;;;5039412;28;20041;-60
2022/08/11 14:00:10;;;;;;;;;;;20.90;52.60;;;;;;5036866;28;20648;-59
2022/08/11 14:02:51;;;;;;;1.15;0.73;;;21.00;52.70;;;;;;5042563;28;19929;-59
2022/08/11 14:05:26;;;;;;;3.22;1.05;;;20.90;52.70;;;;;;5039694;28;20099;-59
2022/08/11 14:08:01;;;;;;;1.23;0.93;;;20.90;52.70;;;;;;5033672;28;20114;-58
2022/08/11 14:10:30;;;;;;;0.85;0.77;;;20.90;52.70;;;;;;5037409;28;20199;-59
2022/08/11 14:15:51;;;;;;;1.08;0.68;;;21.00;52.80;;;;;;5046086;28;20056;-59
2022/08/11 14:18:25;;;;;;;0.88;0.88;;;21.00;52.70;;;;;;5043030;28;20048;-59
2022/08/11 14:23:46;;;;;;;1.52;1.00;;;21.00;52.70;;;;;;5042098;28;20090;-60
2022/08/11 14:26:22;;;;;;;0.77;0.77;;;21.00;52.50;;;;;;5038636;28;20049;-59
2022/08/11 14:28:53;;;;;;;0.73;0.73;;;21.00;52.20;;;;;;5040282;28;20119;-59
2022/08/11 14:31:25;;;;;;;0.95;0.93;;;21.10;52.10;;;;;;5043392;28;20107;-59
2022/08/11 14:33:56;;;;;;;1.23;1.13;;;21.10;52.00;;;;;;5044646;28;20313;-59
2022/08/11 14:36:33;;;;;;;0.90;0.90;;;21.00;51.90;;;;;;5038051;28;20136;-59
2022/08/11 14:39:11;;;;;;;0.60;0.60;;;21.00;51.90;;;;;;5043187;28;20405;-59
2022/08/11 14:47:33;;;;;;;2.35;0.80;;;21.00;51.90;;;;;;5047915;28;20045;-59
2022/08/11 14:50:04;;;;;;;0.60;0.60;;;21.10;52.00;;;;;;5047785;28;20084;-59
2022/08/11 14:52:48;;;;;;;1.48;0.70;;;21.00;52.40;;;;;;5049208;28;20056;-59
2022/08/11 14:58:04;;;;;;;1.70;0.73;;;21.20;53.70;;;;;;5048745;28;20051;-59
2022/08/11 15:00:33;;;;;;;1.52;0.90;;;21.30;54.20;;;;;;5049349;28;20041;-59
2022/08/11 15:03:08;;;;;;;1.10;1.00;;;21.40;54.50;;;;;;5048502;28;20049;-59
2022/08/11 15:05:51;;;;;;;1.08;0.95;;;21.50;54.50;;;;;;5048790;28;20044;-59
2022/08/11 15:12:20;;;;;;;3.45;0.80;;;21.80;55.10;;;;;;5049127;28;20045;-59
2022/08/11 15:14:07;;;;;;;0.77;0.68;;;22.00;55.10;;;;;;5043214;28;20529;-59
2022/08/11 15:19:30;;;;;;;0.70;0.70;;;22.30;54.70;;;;;;5048256;28;20056;-59
2022/08/11 15:24:58;;;;;;;0.93;0.70;;;22.60;54.60;;;;;;5048169;28;20045;-59
2022/08/11 15:39:08;;;;;;;0.65;0.65;;;23.40;52.30;;;;;;5048046;28;20078;-59
2022/08/11 15:48:00;;;;;;;0.57;0.57;;;23.90;49.80;;;;;;5046874;28;20370;-58
2022/08/11 15:50:37;;;;;;;0.68;0.68;;;24.00;48.90;;;;;;5048134;28;20264;-58
2022/08/11 15:53:24;;;;;;;2.70;0.93;;;24.10;48.20;;;;;;5048059;28;20102;-59
2022/08/11 15:55:53;;;;;;;0.60;0.52;;;24.30;47.60;;;;;;5048076;28;20498;-60
2022/08/11 16:04:13;;;;;;;0.70;0.70;;;24.50;46.10;;;;;;5047893;28;20292;-60
2022/08/11 16:07:10;;;;;;;0.60;0.60;;;24.70;46.50;;;;;;5047984;28;20106;-58
2022/08/11 16:09:43;;;;;;;1.27;0.73;;;24.70;46.40;;;;;;5046235;28;20053;-59
2022/08/11 16:12:27;;;;;;;1.10;1.00;;;24.90;46.00;;;;;;5047835;28;20194;-59
2022/08/11 16:17:58;;;;;;;3.17;0.60;;;25.30;44.90;;;;;;5043011;28;20044;-59
2022/08/11 16:20:27;;;;;;;0.70;0.70;;;25.40;44.20;;;;;;5047894;28;20112;-58
2022/08/11 16:23:02;;;;;;;0.87;0.83;;;25.60;43.80;;;;;;5047584;28;20087;-58
2022/08/11 16:25:33;;;;;;;1.13;0.70;;;25.70;43.40;;;;;;5047093;28;20286;-58
2022/08/11 16:28:25;;;;;;;1.13;0.93;;;25.90;43.10;;;;;;5047446;28;20056;-58
2022/08/11 16:30:53;;;;;;;0.38;0.38;;;26.00;42.70;;;;;;5047680;28;20410;-58
2022/08/11 16:33:23;;;;;;;1.05;0.90;;;26.10;42.40;;;;;;5044875;28;20052;-58
2022/08/11 16:39:02;;;;;;;1.50;0.50;;;26.20;41.80;;;;;;5047521;28;20521;-58
2022/08/11 16:47:17;;;;;;;0.68;0.68;;;26.40;41.30;;;;;;5046669;28;20053;-58
2022/08/11 16:50:06;;;;;;;0.82;0.52;;;26.50;41.20;;;;;;5042860;28;20137;-58
2022/08/11 16:52:33;;;;;;;0.70;0.60;;;26.50;41.10;;;;;;5046866;28;20037;-58
2022/08/11 16:55:02;;;;;;;0.77;0.70;;;26.50;41.00;;;;;;5047364;28;20056;-58
2022/08/11 17:00:19;;;;;;;0.43;0.43;;;26.50;40.80;;;;;;5046710;28;20077;-59
2022/08/11 17:14:40;;;;;;;0.80;0.60;;;26.60;40.70;;;;;;5046664;28;20049;-58
2022/08/11 17:17:28;;;;;;;0.60;0.50;;;26.60;40.60;;;;;;5045591;28;20463;-58
2022/08/11 17:20:02;;;;;;;0.60;0.57;;;26.60;40.60;;;;;;5046953;28;20099;-58
2022/08/11 17:25:41;;;;;;;0.50;0.50;;;26.60;40.60;;;;;;5046053;28;20049;-58
2022/08/11 17:28:29;;;;;;;1.00;0.52;;;26.70;40.60;;;;;;5046147;28;20139;-59
2022/08/11 17:36:39;;;;;;;0.63;0.63;;;26.70;40.60;;;;;;5045983;28;20401;-58
2022/08/11 17:39:13;;;;;;;1.10;0.45;;;26.70;40.60;;;;;;5045309;28;20049;-58
2022/08/11 17:50:08;;;;;;;0.57;0.57;;;26.70;40.70;;;;;;5045802;28;20074;-58
2022/08/11 18:01:15;;;;;;;0.70;0.70;;;26.70;40.70;;;;;;5045483;28;20041;-58
2022/08/11 18:03:44;;;;;;;0.50;0.50;;;26.70;40.70;;;;;;5045062;28;20075;-58
2022/08/11 18:06:28;;;;;;;2.17;0.75;;;26.70;40.80;;;;;;5046032;28;20041;-58
